Time;durP1;ratioP1;P1;durP2;ratioP2;P2;SDS_P1;SDS_P2;PMS_P1;PMS_P2;Temp;Humidity;BMP_temperature;BMP_pressure;BME280_temperature;BME280_humidity;BME280_pressure;Samples;Min_cycle;Max_cycle;Signal;HPM_P1;HPM_P2
2021/10/17 00:01:11;;;;;;;4.05;3.63;;;;;;;13.49;71.78;99590.72;5030740;28;20120;-75
2021/10/17 00:03:36;;;;;;;4.65;3.58;;;;;;;13.68;71.70;99619.19;5030829;28;20022;-75
2021/10/17 00:06:02;;;;;;;4.63;4.22;;;;;;;13.63;71.71;99614.47;5031042;28;20025;-75
2021/10/17 00:08:28;;;;;;;4.28;3.85;;;;;;;13.65;72.01;99625.72;5031055;28;20025;-75
2021/10/17 00:10:53;;;;;;;4.10;3.70;;;;;;;13.49;71.85;99609.28;5031579;28;20039;-75
2021/10/17 00:13:19;;;;;;;5.03;4.05;;;;;;;13.82;71.89;99657.25;5030984;28;20053;-75
2021/10/17 00:15:44;;;;;;;4.68;3.80;;;;;;;12.91;71.97;99513.22;5013013;28;20125;-75
2021/10/17 00:18:10;;;;;;;6.40;3.78;;;;;;;13.76;72.09;99652.72;5030968;28;20412;-75
2021/10/17 00:20:39;;;;;;;4.80;3.97;;;;;;;13.47;72.00;99622.75;5030861;28;20076;-75
2021/10/17 00:23:04;;;;;;;4.43;3.97;;;;;;;13.33;72.07;99586.53;5030975;28;20060;-75
2021/10/17 00:25:30;;;;;;;4.57;4.18;;;;;;;13.31;72.24;99586.72;5030885;28;20100;-76
2021/10/17 00:27:55;;;;;;;4.70;4.25;;;;;;;13.51;72.23;99623.19;5030766;28;20406;-75
2021/10/17 00:30:21;;;;;;;5.38;4.72;;;;;;;13.71;72.48;99650.66;5030751;28;20513;-75
2021/10/17 00:32:47;;;;;;;7.30;4.38;;;;;;;13.72;72.40;99660.25;5030734;28;20016;-75
2021/10/17 00:35:13;;;;;;;6.35;4.60;;;;;;;13.32;72.16;99583.06;5030755;28;20104;-74
2021/10/17 00:37:40;;;;;;;5.30;4.80;;;;;;;13.72;72.29;99652.28;5030650;28;20021;-74
2021/10/17 00:40:11;;;;;;;4.68;4.28;;;;;;;13.73;72.29;99642.50;5030403;28;20044;-76
2021/10/17 00:42:37;;;;;;;4.45;4.05;;;;;;;13.69;72.58;99647.38;5030484;28;20099;-75
2021/10/17 00:45:07;;;;;;;4.60;4.13;;;;;;;13.30;72.41;99585.09;5030569;28;20101;-75
2021/10/17 00:47:33;;;;;;;4.28;3.85;;;;;;;13.33;72.38;99584.69;5031019;28;20075;-75
2021/10/17 00:50:00;;;;;;;4.20;3.60;;;;;;;13.75;72.27;99645.78;5034230;28;20022;-75
2021/10/17 00:52:25;;;;;;;5.00;3.50;;;;;;;13.75;71.97;99646.59;5034160;28;20101;-74
2021/10/17 00:54:51;;;;;;;3.45;3.15;;;;;;;13.70;71.98;99646.34;5034171;28;20041;-75
2021/10/17 00:57:17;;;;;;;3.75;3.38;;;;;;;13.03;71.73;99540.81;5033957;28;20532;-75
2021/10/17 00:59:45;;;;;;;3.50;3.20;;;;;;;13.75;71.70;99654.53;5034078;28;20068;-75
2021/10/17 01:02:10;;;;;;;3.95;3.38;;;;;;;13.75;71.57;99653.72;5034015;28;20026;-76
2021/10/17 01:04:37;;;;;;;3.67;3.10;;;;;;;13.45;71.59;99611.53;5033598;28;20081;-75
2021/10/17 01:07:04;;;;;;;4.13;3.40;;;;;;;13.68;71.34;99632.47;5033545;28;20032;-75
2021/10/17 01:09:29;;;;;;;3.67;3.38;;;;;;;13.20;71.29;99555.44;5033852;28;20452;-75
2021/10/17 01:11:55;;;;;;;3.38;3.08;;;;;;;13.36;71.44;99583.50;5033747;28;20029;-74
2021/10/17 01:14:23;;;;;;;4.28;3.50;;;;;;;13.65;71.23;99627.56;5033591;28;20021;-74
2021/10/17 01:16:51;;;;;;;4.80;3.03;;;;;;;13.69;71.30;99657.97;5033488;28;20038;-74
2021/10/17 01:19:18;;;;;;;3.45;3.15;;;;;;;13.72;71.44;99644.31;5033353;28;20529;-76
2021/10/17 01:21:44;;;;;;;4.10;3.20;;;;;;;13.64;71.37;99640.00;5033186;28;20029;-75
2021/10/17 01:24:10;;;;;;;3.97;3.47;;;;;;;13.40;71.72;99613.13;5033526;28;20487;-76
2021/10/17 01:26:36;;;;;;;3.70;3.40;;;;;;;13.66;71.57;99643.28;5033433;28;20022;-75
2021/10/17 01:29:02;;;;;;;3.85;3.13;;;;;;;13.67;71.46;99647.56;5033380;28;20041;-75
2021/10/17 01:31:46;;;;;;;4.57;3.38;;;;;;;13.65;71.09;99652.25;5015706;28;20029;-75
2021/10/17 01:34:13;;;;;;;3.33;3.03;;;;;;;13.56;71.53;99637.50;5033207;28;20025;-75
2021/10/17 01:36:39;;;;;;;3.45;3.15;;;;;;;13.62;71.55;99646.50;5033465;28;20021;-75
2021/10/17 01:39:10;;;;;;;3.65;3.30;;;;;;;13.56;71.58;99647.28;5032971;28;20032;-76
2021/10/17 01:41:36;;;;;;;3.72;3.05;;;;;;;13.41;71.57;99626.19;5033261;28;20513;-75
2021/10/17 01:44:11;;;;;;;4.07;3.15;;;;;;;13.42;71.60;99624.34;5015364;28;20028;-75
2021/10/17 01:46:37;;;;;;;4.13;3.72;;;;;;;13.59;71.51;99646.91;5033150;28;20056;-75
2021/10/17 01:49:06;;;;;;;4.40;3.47;;;;;;;13.31;71.77;99602.63;5032850;28;20538;-75
2021/10/17 01:51:33;;;;;;;3.75;3.05;;;;;;;13.22;71.66;99605.63;5015072;28;20574;-75
2021/10/17 01:53:59;;;;;;;5.25;3.65;;;;;;;13.60;71.46;99661.81;5032918;28;20100;-74
2021/10/17 01:56:24;;;;;;;3.85;3.40;;;;;;;13.50;71.66;99643.59;5032953;28;20041;-76
2021/10/17 01:58:50;;;;;;;3.63;2.90;;;;;;;13.52;71.49;99652.16;5032631;28;20026;-75
2021/10/17 02:01:15;;;;;;;4.75;3.50;;;;;;;13.50;71.64;99659.50;5032793;28;20612;-75
2021/10/17 02:03:41;;;;;;;4.25;3.80;;;;;;;13.08;71.70;99593.25;5032557;28;20022;-76
2021/10/17 02:06:06;;;;;;;3.85;3.55;;;;;;;13.36;71.76;99641.81;5014804;28;20034;-76
2021/10/17 02:08:32;;;;;;;3.58;3.10;;;;;;;13.19;71.50;99609.50;5032524;28;20022;-75
2021/10/17 02:10:58;;;;;;;6.30;3.78;;;;;;;13.42;71.76;99662.31;5032653;28;20025;-75
2021/10/17 02:13:23;;;;;;;4.82;3.22;;;;;;;13.47;71.76;99656.41;5032642;28;20405;-74
2021/10/17 02:15:49;;;;;;;4.60;3.83;;;;;;;13.32;71.90;99644.06;5032202;28;20045;-76
2021/10/17 02:18:15;;;;;;;4.65;4.15;;;;;;;13.09;71.79;99614.28;5014552;28;20461;-76
2021/10/17 02:20:40;;;;;;;3.88;3.53;;;;;;;13.48;71.86;99671.31;5032403;28;20048;-76
2021/10/17 02:23:06;;;;;;;4.10;3.70;;;;;;;13.03;71.72;99607.09;5032755;28;20032;-75
2021/10/17 02:25:33;;;;;;;4.10;3.70;;;;;;;13.16;72.16;99639.00;5032371;28;20058;-74
2021/10/17 02:27:59;;;;;;;4.55;4.13;;;;;;;13.46;72.29;99679.47;5032424;28;20083;-75
2021/10/17 02:30:25;;;;;;;4.28;3.88;;;;;;;13.31;72.21;99658.31;5032566;28;20052;-76
2021/10/17 02:32:50;;;;;;;4.20;3.80;;;;;;;12.90;72.48;99599.03;5014595;28;20048;-75
2021/10/17 02:35:16;;;;;;;4.75;4.28;;;;;;;13.26;72.36;99660.72;5014543;28;20018;-75
2021/10/17 02:37:42;;;;;;;5.78;4.22;;;;;;;13.36;72.49;99671.00;5032392;28;20097;-75
2021/10/17 02:40:08;;;;;;;6.03;4.40;;;;;;;13.44;72.55;99680.69;5031938;28;20022;-76
2021/10/17 02:42:33;;;;;;;7.47;4.78;;;;;;;13.35;72.57;99670.19;5031855;28;20035;-75
2021/10/17 02:44:59;;;;;;;4.65;4.25;;;;;;;13.18;72.54;99654.75;5031787;28;20029;-76
2021/10/17 02:47:25;;;;;;;6.53;4.47;;;;;;;13.01;72.80;99617.06;5031960;28;20120;-76
2021/10/17 02:49:50;;;;;;;5.13;4.72;;;;;;;13.30;72.57;99674.41;5031830;28;20516;-75
2021/10/17 02:52:16;;;;;;;4.55;4.15;;;;;;;13.11;72.70;99644.06;5014208;28;20026;-76
2021/10/17 02:54:41;;;;;;;4.80;4.30;;;;;;;13.38;72.96;99692.03;5013971;28;20108;-76
2021/10/17 02:57:07;;;;;;;5.53;5.03;;;;;;;13.37;72.82;99685.91;5031517;28;20505;-75
2021/10/17 02:59:32;;;;;;;5.30;4.78;;;;;;;13.32;73.11;99693.63;5031783;28;20025;-76
2021/10/17 03:01:57;;;;;;;4.95;4.55;;;;;;;12.90;72.99;99630.84;5031681;28;20028;-75
2021/10/17 03:04:23;;;;;;;5.80;4.88;;;;;;;12.97;73.30;99644.97;5031726;28;20029;-76
2021/10/17 03:06:48;;;;;;;5.07;4.57;;;;;;;12.90;72.97;99623.72;5031723;28;20056;-76
2021/10/17 03:09:14;;;;;;;4.90;4.47;;;;;;;12.91;72.94;99643.06;5031622;28;20096;-76
2021/10/17 03:11:39;;;;;;;5.28;4.78;;;;;;;13.25;73.07;99690.91;5030989;28;20029;-76
2021/10/17 03:14:05;;;;;;;5.22;4.80;;;;;;;13.23;73.02;99687.63;5031585;28;20030;-76
2021/10/17 03:16:32;;;;;;;6.15;4.60;;;;;;;13.38;73.05;99700.81;5031453;28;20415;-76
2021/10/17 03:18:57;;;;;;;4.85;4.40;;;;;;;13.29;73.19;99692.16;5031492;28;20036;-75
2021/10/17 03:21:23;;;;;;;5.85;4.13;;;;;;;13.17;73.08;99676.97;5031250;28;20029;-75
2021/10/17 03:23:48;;;;;;;7.78;5.40;;;;;;;13.38;73.29;99716.75;5013681;28;20026;-76
2021/10/17 03:26:14;;;;;;;5.47;4.97;;;;;;;12.92;72.86;99634.13;5031677;28;20484;-76
2021/10/17 03:28:39;;;;;;;5.20;4.68;;;;;;;13.34;73.12;99705.66;5031449;28;20021;-75
2021/10/17 03:31:07;;;;;;;5.43;4.75;;;;;;;13.16;73.25;99681.41;5031407;28;20083;-75
2021/10/17 03:33:33;;;;;;;4.68;4.25;;;;;;;12.52;72.84;99580.75;5031339;28;20025;-75
2021/10/17 03:35:58;;;;;;;3.83;3.53;;;;;;;13.46;72.99;99721.09;5031321;28;20025;-75
2021/10/17 03:38:24;;;;;;;5.05;3.92;;;;;;;13.38;73.00;99697.31;5031422;28;20032;-75
2021/10/17 03:40:50;;;;;;;4.82;4.30;;;;;;;13.13;72.82;99676.50;5031361;28;20561;-75
2021/10/17 03:43:15;;;;;;;3.85;3.55;;;;;;;13.49;72.96;99715.41;5031166;28;20084;-75
2021/10/17 03:45:41;;;;;;;5.53;4.13;;;;;;;13.49;73.03;99720.69;5013159;28;20024;-75
2021/10/17 03:48:07;;;;;;;5.70;4.53;;;;;;;13.08;72.80;99657.69;5030963;28;20104;-75
2021/10/17 03:50:33;;;;;;;4.28;3.88;;;;;;;13.17;72.77;99672.50;5031202;28;20100;-75
2021/10/17 03:52:59;;;;;;;5.07;4.28;;;;;;;13.04;72.77;99661.75;5031340;28;20539;-75
2021/10/17 03:55:24;;;;;;;4.53;4.13;;;;;;;12.94;72.51;99648.00;5031231;28;20423;-75
2021/10/17 03:57:50;;;;;;;5.28;4.78;;;;;;;13.08;72.74;99684.22;5031192;28;20115;-75
2021/10/17 04:00:15;;;;;;;5.00;4.50;;;;;;;13.09;72.55;99688.50;5030985;28;20414;-75
2021/10/17 04:02:41;;;;;;;5.38;4.88;;;;;;;13.42;72.98;99743.69;5030749;28;20033;-75
2021/10/17 04:05:07;;;;;;;4.97;4.28;;;;;;;13.29;72.77;99723.97;5031021;28;20025;-75
2021/10/17 04:07:32;;;;;;;5.28;4.78;;;;;;;13.42;72.67;99747.16;5030882;28;20025;-75
2021/10/17 04:09:58;;;;;;;4.97;4.47;;;;;;;13.41;72.72;99750.84;5030878;28;20025;-75
2021/10/17 04:12:23;;;;;;;8.65;4.45;;;;;;;13.43;72.67;99748.81;5030946;28;20096;-75
2021/10/17 04:14:48;;;;;;;5.35;4.13;;;;;;;13.36;72.50;99735.47;5030866;28;20033;-75
2021/10/17 04:17:14;;;;;;;5.32;4.32;;;;;;;13.40;72.38;99745.72;5030483;28;20042;-75
2021/10/17 04:19:39;;;;;;;5.57;4.30;;;;;;;12.80;72.55;99665.59;5030748;28;20048;-75
2021/10/17 04:22:05;;;;;;;4.55;4.15;;;;;;;13.05;72.72;99703.13;5031923;28;20060;-75
2021/10/17 04:24:30;;;;;;;5.43;4.70;;;;;;;13.35;72.68;99765.66;5034667;28;20021;-75
2021/10/17 04:26:55;;;;;;;4.10;3.67;;;;;;;13.21;72.73;99736.56;5016817;28;20021;-75
2021/10/17 04:29:21;;;;;;;4.75;4.32;;;;;;;13.29;72.89;99760.28;5034380;28;20072;-75
2021/10/17 04:31:46;;;;;;;5.15;4.65;;;;;;;13.30;72.72;99762.75;5034491;28;20502;-75
2021/10/17 04:34:12;;;;;;;5.38;4.78;;;;;;;13.33;72.61;99761.56;5034203;28;20030;-75
2021/10/17 04:36:37;;;;;;;4.63;4.22;;;;;;;13.36;72.34;99763.81;5034227;28;20022;-75
2021/10/17 04:39:06;;;;;;;4.82;4.38;;;;;;;13.39;72.55;99778.56;5034402;28;20060;-75
2021/10/17 04:41:33;;;;;;;4.82;4.43;;;;;;;13.38;72.36;99763.63;5034320;28;20018;-75
2021/10/17 04:43:59;;;;;;;4.53;4.13;;;;;;;12.99;72.21;99710.03;5034197;28;20025;-75
2021/10/17 04:46:24;;;;;;;5.40;4.30;;;;;;;13.20;72.09;99750.81;5016565;28;20029;-75
2021/10/17 04:48:49;;;;;;;5.13;4.53;;;;;;;13.40;72.21;99786.31;5034151;28;20075;-75
2021/10/17 04:51:15;;;;;;;5.57;5.07;;;;;;;13.20;72.16;99749.00;5034381;28;20544;-75
2021/10/17 04:53:40;;;;;;;5.03;3.70;;;;;;;13.42;72.09;99789.59;5034079;28;20025;-75
2021/10/17 04:56:05;;;;;;;5.82;4.85;;;;;;;13.39;71.90;99799.78;5033746;28;20029;-75
2021/10/17 04:58:31;;;;;;;4.35;3.55;;;;;;;13.31;71.96;99779.47;5033754;28;20056;-75
2021/10/17 05:00:56;;;;;;;6.07;4.38;;;;;;;13.21;71.94;99765.72;5033730;28;20025;-75
2021/10/17 05:03:23;;;;;;;4.10;3.45;;;;;;;13.40;71.74;99798.78;5033678;28;20036;-75
2021/10/17 05:05:49;;;;;;;5.05;3.88;;;;;;;13.45;71.85;99793.72;5033992;28;20030;-74
2021/10/17 05:08:15;;;;;;;5.22;4.72;;;;;;;13.46;71.43;99813.91;5033934;28;20490;-75
2021/10/17 05:10:40;;;;;;;5.97;4.82;;;;;;;13.52;71.63;99815.81;5033788;28;20514;-75
2021/10/17 05:13:06;;;;;;;8.65;5.35;;;;;;;13.48;71.71;99796.81;5033661;28;20029;-74
2021/10/17 05:15:32;;;;;;;6.25;5.65;;;;;;;13.32;71.34;99771.34;5033715;28;20025;-75
2021/10/17 05:17:57;;;;;;;6.20;5.55;;;;;;;13.29;71.54;99774.38;5033528;28;20033;-75
2021/10/17 05:20:22;;;;;;;6.30;5.70;;;;;;;13.59;71.50;99824.66;5033514;28;20100;-75
2021/10/17 05:22:48;;;;;;;6.50;5.28;;;;;;;13.52;71.35;99823.78;5015517;28;20422;-75
2021/10/17 05:25:13;;;;;;;6.15;5.22;;;;;;;13.35;71.32;99786.88;5033788;28;20021;-75
2021/10/17 05:27:39;;;;;;;5.90;5.30;;;;;;;13.15;71.15;99766.44;5033602;28;20043;-75
2021/10/17 05:30:05;;;;;;;5.85;5.22;;;;;;;13.09;71.41;99757.41;5033246;28;20500;-75
2021/10/17 05:32:31;;;;;;;5.30;4.80;;;;;;;13.56;71.10;99840.94;5033025;28;20538;-76
2021/10/17 05:34:56;;;;;;;5.20;4.70;;;;;;;13.04;71.46;99765.94;5032522;28;20049;-75
2021/10/17 05:37:22;;;;;;;6.85;5.05;;;;;;;13.56;71.52;99843.59;5033239;28;20021;-75
2021/10/17 05:39:47;;;;;;;5.60;4.70;;;;;;;13.19;71.32;99795.06;5033377;28;20033;-75
2021/10/17 05:42:12;;;;;;;5.18;4.68;;;;;;;13.20;71.33;99786.09;5015448;28;20021;-75
2021/10/17 05:44:38;;;;;;;5.68;5.18;;;;;;;13.33;71.24;99810.09;5033172;28;20063;-75
2021/10/17 05:47:03;;;;;;;8.80;7.00;;;;;;;13.34;71.13;99813.56;5033070;28;20083;-75
2021/10/17 05:49:29;;;;;;;6.28;5.60;;;;;;;13.51;71.11;99846.00;5015373;28;20025;-75
2021/10/17 05:51:54;;;;;;;6.35;5.75;;;;;;;13.63;71.21;99866.53;5033086;28;20022;-75
2021/10/17 05:54:19;;;;;;;6.97;6.38;;;;;;;13.60;71.23;99851.00;5032980;28;20413;-75
2021/10/17 05:56:45;;;;;;;6.20;5.60;;;;;;;13.65;71.19;99851.25;5032696;28;20474;-75
2021/10/17 05:59:10;;;;;;;6.18;5.30;;;;;;;13.76;70.93;99867.66;5032899;28;20097;-75
2021/10/17 06:01:36;;;;;;;9.07;6.57;;;;;;;13.63;70.98;99845.31;5033025;28;20391;-75
2021/10/17 06:04:02;;;;;;;6.97;5.90;;;;;;;13.80;70.80;99882.19;5032658;28;20096;-75
2021/10/17 06:06:28;;;;;;;9.85;8.63;;;;;;;12.95;70.73;99729.97;5032721;28;20029;-75
2021/10/17 06:08:55;;;;;;;8.27;7.47;;;;;;;13.61;70.54;99831.41;5032632;28;20151;-75
2021/10/17 06:11:22;;;;;;;6.10;4.30;;;;;;;13.43;70.45;99806.34;5014661;28;20029;-75
2021/10/17 06:13:47;;;;;;;6.25;5.07;;;;;;;13.73;70.49;99857.44;5032494;28;20021;-75
2021/10/17 06:16:12;;;;;;;6.57;4.72;;;;;;;13.73;70.35;99850.28;5032347;28;20102;-75
2021/10/17 06:18:38;;;;;;;6.05;4.53;;;;;;;13.56;70.13;99828.50;5014834;28;20429;-76
2021/10/17 06:21:05;;;;;;;4.18;3.50;;;;;;;13.94;70.28;99878.63;5032290;28;20082;-75
2021/10/17 06:23:31;;;;;;;4.95;3.90;;;;;;;13.95;70.25;99885.59;5032466;28;20029;-75
2021/10/17 06:25:56;;;;;;;4.90;3.75;;;;;;;13.77;69.97;99858.69;5032541;28;20025;-75
2021/10/17 06:28:22;;;;;;;5.18;4.10;;;;;;;13.61;69.86;99815.50;5032377;28;20103;-75
2021/10/17 06:30:47;;;;;;;6.82;4.38;;;;;;;14.12;69.87;99889.66;5032208;28;20425;-76
2021/10/17 06:33:13;;;;;;;6.03;4.78;;;;;;;14.19;69.89;99892.34;5032222;28;20022;-75
2021/10/17 06:35:38;;;;;;;5.65;5.03;;;;;;;13.98;69.71;99854.19;5032114;28;20391;-75
2021/10/17 06:38:03;;;;;;;5.88;4.35;;;;;;;13.88;69.54;99835.09;5032062;28;20030;-75
2021/10/17 06:40:29;;;;;;;4.65;4.15;;;;;;;14.29;69.14;99896.31;5031979;28;20083;-75
2021/10/17 06:42:56;;;;;;;5.13;3.60;;;;;;;14.32;69.02;99903.06;5031698;28;20096;-75
2021/10/17 06:45:22;;;;;;;5.00;3.83;;;;;;;14.13;68.95;99869.22;5013037;28;20545;-75
2021/10/17 06:47:47;;;;;;;4.40;4.00;;;;;;;14.28;68.86;99880.56;5031714;28;20025;-75
2021/10/17 06:50:14;;;;;;;4.18;3.35;;;;;;;14.35;69.03;99883.28;5031824;28;20028;-75
2021/10/17 06:52:39;;;;;;;4.55;3.63;;;;;;;14.36;68.78;99871.63;5031878;28;20097;-76
2021/10/17 06:55:05;;;;;;;4.50;4.10;;;;;;;14.71;68.73;99917.66;5031819;28;20029;-75
2021/10/17 06:57:30;;;;;;;5.90;4.20;;;;;;;14.80;68.50;99924.47;5031917;28;20013;-75
2021/10/17 06:59:56;;;;;;;4.05;3.25;;;;;;;14.51;68.23;99872.38;5031683;28;20407;-75
2021/10/17 07:02:21;;;;;;;3.83;3.53;;;;;;;14.80;67.82;99921.81;5031673;28;20029;-75
2021/10/17 07:04:46;;;;;;;3.90;3.35;;;;;;;14.69;67.67;99901.09;5031768;28;20029;-76
2021/10/17 07:07:12;;;;;;;4.45;3.10;;;;;;;14.87;67.69;99920.03;5031723;28;20025;-76
2021/10/17 07:09:37;;;;;;;2.70;2.50;;;;;;;14.88;67.60;99925.16;5031442;28;20095;-74
2021/10/17 07:12:03;;;;;;;2.20;2.00;;;;;;;14.77;66.96;99899.09;5031327;28;20022;-75
2021/10/17 07:14:28;;;;;;;2.55;2.33;;;;;;;14.50;66.59;99868.88;5031349;28;20033;-75
2021/10/17 07:16:54;;;;;;;1.52;1.40;;;;;;;14.96;66.23;99923.34;5031391;28;20484;-76
2021/10/17 07:19:19;;;;;;;2.10;1.58;;;;;;;14.77;65.87;99884.97;5031668;28;20032;-76
2021/10/17 07:21:45;;;;;;;2.05;1.45;;;;;;;15.03;65.25;99927.69;5031389;28;20028;-75
2021/10/17 07:24:10;;;;;;;2.00;1.27;;;;;;;14.41;64.88;99834.66;5013707;28;20025;-75
2021/10/17 07:26:36;;;;;;;2.60;1.00;;;;;;;15.00;65.13;99927.25;5031552;28;20044;-76
2021/10/17 07:29:01;;;;;;;1.75;1.60;;;;;;;15.02;64.60;99920.72;5031441;28;20026;-75
2021/10/17 07:31:26;;;;;;;1.50;1.40;;;;;;;14.76;64.67;99883.34;5031396;28;20147;-76
2021/10/17 07:33:52;;;;;;;1.40;1.30;;;;;;;15.07;64.73;99928.09;5031234;28;20021;-75
2021/10/17 07:36:17;;;;;;;2.08;1.70;;;;;;;14.94;64.14;99912.91;5031342;28;20033;-75
2021/10/17 07:38:43;;;;;;;2.28;1.65;;;;;;;14.63;64.47;99874.28;5031342;28;20036;-76
2021/10/17 07:41:08;;;;;;;3.13;1.70;;;;;;;15.12;64.20;99936.31;5013528;28;20072;-76
2021/10/17 07:43:33;;;;;;;0.90;0.80;;;;;;;14.93;63.79;99897.97;5031074;28;20022;-76
2021/10/17 07:46:02;;;;;;;2.05;1.45;;;;;;;14.85;63.54;99890.13;5013613;28;20544;-76
2021/10/17 07:48:29;;;;;;;1.63;1.15;;;;;;;15.17;63.18;99936.53;5031160;28;20025;-76
2021/10/17 07:50:54;;;;;;;1.02;0.88;;;;;;;15.11;63.30;99930.16;5029262;28;20018;-76
2021/10/17 07:53:20;;;;;;;1.58;0.95;;;;;;;14.73;62.98;99883.72;5011174;28;20421;-76
2021/10/17 07:55:45;;;;;;;2.13;0.85;;;;;;;15.15;63.02;99941.22;5017038;28;20036;-75
2021/10/17 07:58:11;;;;;;;1.77;0.77;;;;;;;14.76;62.97;99884.16;5015064;28;20033;-76
2021/10/17 08:00:37;;;;;;;1.10;0.90;;;;;;;14.84;62.51;99885.84;5035266;28;20025;-76
2021/10/17 08:03:02;;;;;;;2.30;1.00;;;;;;;15.26;62.77;99962.78;5035040;28;20021;-75
2021/10/17 08:05:28;;;;;;;1.52;0.88;;;;;;;15.30;62.61;99946.41;5034808;28;20486;-76
2021/10/17 08:07:54;;;;;;;0.90;0.80;;;;;;;15.20;61.83;99936.97;5035049;28;20021;-76
2021/10/17 08:10:20;;;;;;;2.22;1.25;;;;;;;15.30;61.89;99952.56;5034838;28;20025;-75
2021/10/17 08:12:45;;;;;;;1.00;0.70;;;;;;;15.36;61.84;99965.06;5034808;28;20022;-75
2021/10/17 08:15:11;;;;;;;1.02;0.80;;;;;;;15.18;62.05;99924.88;5034837;28;20032;-76
2021/10/17 08:17:37;;;;;;;1.38;1.25;;;;;;;15.47;62.00;99963.66;5034684;28;20096;-76
2021/10/17 08:20:05;;;;;;;0.80;0.80;;;;;;;15.43;61.51;99941.13;5017010;28;20021;-74
2021/10/17 08:22:31;;;;;;;1.50;1.10;;;;;;;15.26;61.11;99930.84;5034683;28;20057;-76
2021/10/17 08:24:56;;;;;;;1.67;0.90;;;;;;;15.57;61.36;99962.31;5034688;28;20079;-75
2021/10/17 08:27:21;;;;;;;1.45;0.95;;;;;;;15.60;61.13;99950.44;5034495;28;20060;-76
2021/10/17 08:29:47;;;;;;;1.60;1.17;;;;;;;15.72;60.97;99959.50;5016631;28;20028;-76
2021/10/17 08:32:13;;;;;;;2.35;1.80;;;;;;;15.73;61.24;99945.16;5034449;28;20017;-75
2021/10/17 08:34:38;;;;;;;1.83;1.30;;;;;;;15.80;60.92;99954.00;5034336;28;20029;-75
2021/10/17 08:37:04;;;;;;;1.83;0.82;;;;;;;15.62;60.92;99908.50;5034156;28;20021;-76
2021/10/17 08:39:29;;;;;;;1.80;0.85;;;;;;;15.54;60.47;99905.97;5034234;28;20152;-75
2021/10/17 08:41:55;;;;;;;1.95;0.80;;;;;;;15.93;60.47;99973.69;5034345;28;20025;-76
2021/10/17 08:44:21;;;;;;;1.58;0.75;;;;;;;15.97;60.05;99961.59;5016553;28;20406;-76
2021/10/17 08:46:47;;;;;;;1.33;0.80;;;;;;;15.91;59.57;99960.56;5033962;28;20029;-76
2021/10/17 08:49:13;;;;;;;1.00;0.90;;;;;;;15.86;59.52;99944.38;5034143;28;20028;-76
2021/10/17 08:51:39;;;;;;;2.08;1.00;;;;;;;15.99;59.82;99975.53;5034126;28;20034;-76
2021/10/17 08:54:06;;;;;;;2.25;2.03;;;;;;;16.04;59.92;99959.75;5033963;28;20025;-75
2021/10/17 08:56:32;;;;;;;1.00;0.80;;;;;;;16.10;59.30;99967.75;5033881;28;20017;-76
2021/10/17 08:58:57;;;;;;;1.20;0.70;;;;;;;15.89;59.26;99920.00;5033748;28;20061;-76
2021/10/17 09:01:23;;;;;;;0.90;0.70;;;;;;;15.70;58.72;99888.84;5033742;28;20068;-75
2021/10/17 09:03:58;;;;;;;1.45;0.50;;;;;;;15.80;58.53;99894.59;5033564;28;20506;-75
2021/10/17 09:06:30;;;;;;;0.88;0.60;;;;;;;15.90;58.83;99921.63;5034079;28;20032;-75
2021/10/17 09:09:15;;;;;;;1.17;0.80;;;;;;;16.26;58.66;99965.72;5032802;28;20056;-75
2021/10/17 09:11:46;;;;;;;1.25;0.82;;;;;;;15.92;58.71;99905.47;5034070;28;20646;-75
2021/10/17 09:14:13;;;;;;;2.33;1.20;;;;;;;16.25;58.30;99959.56;5033977;28;20498;-76
2021/10/17 09:16:44;;;;;;;2.05;1.10;;;;;;;16.28;58.63;99967.16;5033508;28;20474;-75
2021/10/17 09:19:15;;;;;;;0.93;0.90;;;;;;;16.29;58.59;99959.97;5033512;28;20461;-75
2021/10/17 09:22:07;;;;;;;1.58;0.98;;;;;;;16.28;58.89;99969.00;5033552;28;20029;-76
2021/10/17 09:24:34;;;;;;;1.50;1.40;;;;;;;15.72;58.68;99876.16;5015867;28;20041;-75
2021/10/17 09:27:02;;;;;;;2.17;1.13;;;;;;;16.36;58.86;99966.97;5033246;28;20026;-75
2021/10/17 09:29:29;;;;;;;1.25;1.10;;;;;;;16.01;58.90;99899.72;5033350;28;20030;-75
2021/10/17 09:31:55;;;;;;;1.85;1.08;;;;;;;16.46;58.41;99970.06;5033488;28;20398;-75
2021/10/17 09:34:26;;;;;;;3.50;1.30;;;;;;;16.46;58.75;99966.56;5033356;28;20022;-75
2021/10/17 09:37:04;;;;;;;;;;;;;;;16.35;58.42;99970.66;5015926;28;20025;-74
2021/10/17 09:39:35;;;;;;;1.98;1.50;;;;;;;15.93;59.02;99899.94;5033280;28;20373;-75
2021/10/17 09:42:01;;;;;;;4.47;2.60;;;;;;;15.84;59.24;99888.66;5033258;28;20035;-75
2021/10/17 09:44:41;;;;;;;5.63;3.03;;;;;;;16.08;59.23;99939.69;5033373;28;20648;-75
2021/10/17 09:47:06;;;;;;;5.10;3.95;;;;;;;15.94;59.93;99930.03;5033091;28;20032;-75
2021/10/17 09:49:32;;;;;;;3.88;2.45;;;;;;;15.91;59.72;99919.81;5033182;28;20112;-75
2021/10/17 09:52:17;;;;;;;3.20;2.17;;;;;;;16.19;59.81;99971.88;5033156;28;20087;-75
2021/10/17 09:54:52;;;;;;;4.88;2.63;;;;;;;16.02;59.87;99951.97;5031888;28;20465;-75
2021/10/17 09:57:18;;;;;;;5.30;3.38;;;;;;;16.12;60.08;99978.22;5032732;28;20494;-75
2021/10/17 09:59:43;;;;;;;4.50;2.88;;;;;;;15.72;60.18;99924.06;5032761;28;20031;-76
2021/10/17 10:02:10;;;;;;;3.53;2.60;;;;;;;15.93;59.91;99958.53;5014835;28;20569;-75
2021/10/17 10:04:42;;;;;;;7.03;4.70;;;;;;;16.04;60.29;99968.56;5032598;28;20029;-75
2021/10/17 10:07:10;;;;;;;7.40;4.85;;;;;;;15.63;60.35;99898.66;5014870;28;20087;-75
2021/10/17 10:09:37;;;;;;;6.65;5.13;;;;;;;15.88;60.28;99939.66;5032419;28;20087;-75
2021/10/17 10:12:04;;;;;;;7.15;4.80;;;;;;;15.58;60.17;99885.94;5032336;28;20104;-75
2021/10/17 10:14:32;;;;;;;3.65;2.65;;;;;;;16.01;60.34;99957.50;5032285;28;20021;-75
2021/10/17 10:17:00;;;;;;;3.72;2.35;;;;;;;15.80;60.03;99923.88;5032253;28;20075;-75
2021/10/17 10:19:26;;;;;;;3.95;2.58;;;;;;;16.02;60.19;99959.16;5032193;28;20026;-75
2021/10/17 10:21:51;;;;;;;2.85;2.28;;;;;;;15.99;60.56;99943.56;5032258;28;20083;-75
2021/10/17 10:24:18;;;;;;;3.80;2.35;;;;;;;16.08;60.31;99950.34;5014481;28;20026;-75
2021/10/17 10:26:52;;;;;;;1.70;1.60;;;;;;;16.05;60.62;99951.56;5032109;28;20426;-75
2021/10/17 10:29:32;;;;;;;2.58;1.73;;;;;;;16.03;60.17;99953.63;5014365;28;20120;-76
2021/10/17 10:32:00;;;;;;;1.80;1.65;;;;;;;15.95;60.40;99953.00;5032240;28;20025;-75
2021/10/17 10:34:32;;;;;;;4.82;2.20;;;;;;;15.96;60.76;99955.44;5014438;28;20418;-75
2021/10/17 10:37:15;;;;;;;2.88;2.20;;;;;;;15.97;60.48;99950.94;5032029;28;20029;-75
2021/10/17 10:40:00;;;;;;;2.10;1.90;;;;;;;15.40;60.17;99848.41;5032067;28;20063;-75
2021/10/17 10:42:33;;;;;;;3.60;2.75;;;;;;;16.11;60.07;99947.28;5031951;28;20486;-75
2021/10/17 10:45:25;;;;;;;3.78;3.28;;;;;;;16.20;59.95;99943.38;5031889;28;20079;-75
2021/10/17 10:48:06;;;;;;;2.78;1.70;;;;;;;16.25;59.65;99948.91;5031902;28;20025;-74
2021/10/17 10:50:54;;;;;;;2.08;1.40;;;;;;;16.27;59.86;99946.88;5031908;28;20063;-76
2021/10/17 10:53:46;;;;;;;2.10;1.85;;;;;;;16.32;59.48;99944.41;5031828;28;20026;-76
2021/10/17 10:56:38;;;;;;;3.45;2.17;;;;;;;16.34;59.40;99936.19;5031941;28;20017;-75
2021/10/17 10:59:05;;;;;;;2.40;1.70;;;;;;;16.35;59.69;99937.84;5031791;28;20517;-75
2021/10/17 11:02:09;;;;;;;3.65;1.80;;;;;;;16.47;59.22;99937.03;5031882;28;20032;-74
2021/10/17 11:04:38;;;;;;;2.28;2.08;;;;;;;16.51;59.10;99937.44;4982287;28;20046;-75
2021/10/17 11:07:21;;;;;;;4.47;3.13;;;;;;;16.64;58.64;99941.94;5031432;28;20124;-74
2021/10/17 11:09:48;;;;;;;4.05;2.75;;;;;;;16.92;57.52;99913.19;5013715;28;20410;-75
2021/10/17 11:12:41;;;;;;;2.50;2.30;;;;;;;17.34;56.72;99932.34;5031301;28;20395;-76
2021/10/17 11:15:09;;;;;;;2.10;1.80;;;;;;;17.18;56.61;99890.13;5031405;28;20029;-76
2021/10/17 11:17:35;;;;;;;2.85;1.40;;;;;;;17.43;55.83;99933.75;5031313;28;20053;-75
2021/10/17 11:20:02;;;;;;;1.85;1.17;;;;;;;17.38;55.33;99928.22;5031452;28;20048;-75
2021/10/17 11:22:28;;;;;;;1.25;1.15;;;;;;;17.18;55.10;99892.81;5031245;28;20030;-76
2021/10/17 11:24:55;;;;;;;1.38;1.02;;;;;;;17.40;54.94;99913.63;5026558;28;20025;-81
2021/10/17 11:27:21;;;;;;;6.95;5.05;;;;;;;17.53;54.46;99930.59;5030528;28;20036;-81
2021/10/17 11:29:51;;;;;;;3.97;3.55;;;;;;;17.53;54.26;99920.75;5030262;28;20198;-82
2021/10/17 11:32:17;;;;;;;4.32;3.70;;;;;;;17.15;54.42;99878.84;5010968;28;20503;-82
2021/10/17 11:34:58;;;;;;;2.50;2.03;;;;;;;17.33;54.55;99930.72;5028121;28;20031;-81